sensor_id;sensor_type;location;lat;lon;timestamp;P1;durP1;ratioP1;P2;durP2;ratioP2
22468;SDS011;11401;50.792;4.352;2024-03-08T00:00:06;14.13;;;9.75;;
22468;SDS011;11401;50.792;4.352;2024-03-08T00:02:43;13.75;;;10.00;;
22468;SDS011;11401;50.792;4.352;2024-03-08T00:05:11;16.15;;;10.48;;
22468;SDS011;11401;50.792;4.352;2024-03-08T00:07:39;14.23;;;9.30;;
22468;SDS011;11401;50.792;4.352;2024-03-08T00:10:07;14.40;;;9.57;;
22468;SDS011;11401;50.792;4.352;2024-03-08T00:12:39;12.25;;;9.77;;
22468;SDS011;11401;50.792;4.352;2024-03-08T00:15:10;15.45;;;10.05;;
22468;SDS011;11401;50.792;4.352;2024-03-08T00:17:41;14.25;;;10.60;;
22468;SDS011;11401;50.792;4.352;2024-03-08T00:20:09;14.20;;;10.50;;
22468;SDS011;11401;50.792;4.352;2024-03-08T00:22:37;16.50;;;10.40;;
22468;SDS011;11401;50.792;4.352;2024-03-08T00:25:05;14.23;;;10.00;;
22468;SDS011;11401;50.792;4.352;2024-03-08T00:27:37;16.10;;;10.85;;
22468;SDS011;11401;50.792;4.352;2024-03-08T00:30:05;13.90;;;10.05;;
22468;SDS011;11401;50.792;4.352;2024-03-08T00:32:33;13.65;;;9.88;;
22468;SDS011;11401;50.792;4.352;2024-03-08T00:35:01;15.00;;;10.73;;
22468;SDS011;11401;50.792;4.352;2024-03-08T00:37:28;18.58;;;11.13;;
22468;SDS011;11401;50.792;4.352;2024-03-08T00:39:56;14.55;;;9.90;;
22468;SDS011;11401;50.792;4.352;2024-03-08T00:42:22;16.10;;;11.55;;
22468;SDS011;11401;50.792;4.352;2024-03-08T00:44:50;14.40;;;9.55;;
22468;SDS011;11401;50.792;4.352;2024-03-08T00:47:18;16.40;;;11.02;;
22468;SDS011;11401;50.792;4.352;2024-03-08T00:49:46;17.10;;;10.60;;
22468;SDS011;11401;50.792;4.352;2024-03-08T00:52:13;16.30;;;10.95;;
22468;SDS011;11401;50.792;4.352;2024-03-08T00:54:40;17.02;;;11.15;;
22468;SDS011;11401;50.792;4.352;2024-03-08T00:57:10;16.38;;;10.65;;
22468;SDS011;11401;50.792;4.352;2024-03-08T00:59:38;16.98;;;11.05;;
22468;SDS011;11401;50.792;4.352;2024-03-08T01:02:05;19.45;;;11.70;;
22468;SDS011;11401;50.792;4.352;2024-03-08T01:04:32;15.60;;;10.68;;
22468;SDS011;11401;50.792;4.352;2024-03-08T01:07:00;20.88;;;11.82;;
22468;SDS011;11401;50.792;4.352;2024-03-08T01:09:27;12.45;;;10.30;;
22468;SDS011;11401;50.792;4.352;2024-03-08T01:11:54;16.42;;;11.02;;
22468;SDS011;11401;50.792;4.352;2024-03-08T01:14:22;19.60;;;11.38;;
22468;SDS011;11401;50.792;4.352;2024-03-08T01:16:50;21.23;;;11.38;;
22468;SDS011;11401;50.792;4.352;2024-03-08T01:19:17;15.07;;;10.77;;
22468;SDS011;11401;50.792;4.352;2024-03-08T01:21:44;15.98;;;10.48;;
22468;SDS011;11401;50.792;4.352;2024-03-08T01:24:11;15.80;;;11.55;;
22468;SDS011;11401;50.792;4.352;2024-03-08T01:26:38;16.60;;;10.95;;
22468;SDS011;11401;50.792;4.352;2024-03-08T01:29:06;16.17;;;10.93;;
22468;SDS011;11401;50.792;4.352;2024-03-08T01:31:34;17.23;;;11.98;;
22468;SDS011;11401;50.792;4.352;2024-03-08T01:34:03;18.58;;;12.50;;
22468;SDS011;11401;50.792;4.352;2024-03-08T01:36:30;18.75;;;12.05;;
22468;SDS011;11401;50.792;4.352;2024-03-08T01:38:57;16.35;;;11.90;;
22468;SDS011;11401;50.792;4.352;2024-03-08T01:41:24;16.30;;;11.88;;
22468;SDS011;11401;50.792;4.352;2024-03-08T01:43:51;15.23;;;10.88;;
22468;SDS011;11401;50.792;4.352;2024-03-08T01:46:19;16.88;;;11.57;;
22468;SDS011;11401;50.792;4.352;2024-03-08T01:48:49;16.35;;;12.02;;
22468;SDS011;11401;50.792;4.352;2024-03-08T01:51:18;14.65;;;11.38;;
22468;SDS011;11401;50.792;4.352;2024-03-08T01:53:46;18.38;;;11.63;;
22468;SDS011;11401;50.792;4.352;2024-03-08T01:56:14;17.60;;;11.52;;
22468;SDS011;11401;50.792;4.352;2024-03-08T01:58:41;17.55;;;12.10;;
22468;SDS011;11401;50.792;4.352;2024-03-08T02:01:14;18.02;;;12.13;;
22468;SDS011;11401;50.792;4.352;2024-03-08T02:03:42;13.82;;;10.77;;
22468;SDS011;11401;50.792;4.352;2024-03-08T02:06:11;17.05;;;11.98;;
22468;SDS011;11401;50.792;4.352;2024-03-08T02:08:44;18.13;;;12.40;;
22468;SDS011;11401;50.792;4.352;2024-03-08T02:11:13;16.10;;;11.90;;
22468;SDS011;11401;50.792;4.352;2024-03-08T02:13:41;16.30;;;12.05;;
22468;SDS011;11401;50.792;4.352;2024-03-08T02:16:08;16.73;;;12.23;;
22468;SDS011;11401;50.792;4.352;2024-03-08T02:18:36;16.05;;;12.18;;
22468;SDS011;11401;50.792;4.352;2024-03-08T02:21:04;16.80;;;12.27;;
22468;SDS011;11401;50.792;4.352;2024-03-08T02:23:33;18.00;;;12.15;;
22468;SDS011;11401;50.792;4.352;2024-03-08T02:26:01;18.63;;;13.20;;
22468;SDS011;11401;50.792;4.352;2024-03-08T02:28:28;16.83;;;12.07;;
22468;SDS011;11401;50.792;4.352;2024-03-08T02:30:55;17.95;;;13.73;;
22468;SDS011;11401;50.792;4.352;2024-03-08T02:33:24;17.67;;;12.65;;
22468;SDS011;11401;50.792;4.352;2024-03-08T02:35:54;23.35;;;13.68;;
22468;SDS011;11401;50.792;4.352;2024-03-08T02:38:24;18.20;;;13.05;;
22468;SDS011;11401;50.792;4.352;2024-03-08T02:40:52;18.55;;;11.90;;
22468;SDS011;11401;50.792;4.352;2024-03-08T02:43:21;17.58;;;13.35;;
22468;SDS011;11401;50.792;4.352;2024-03-08T02:45:49;15.00;;;11.90;;
22468;SDS011;11401;50.792;4.352;2024-03-08T02:48:16;21.02;;;13.23;;
22468;SDS011;11401;50.792;4.352;2024-03-08T02:50:44;19.02;;;12.93;;
22468;SDS011;11401;50.792;4.352;2024-03-08T02:53:12;18.90;;;12.95;;
22468;SDS011;11401;50.792;4.352;2024-03-08T02:55:40;19.70;;;14.40;;
22468;SDS011;11401;50.792;4.352;2024-03-08T02:58:08;18.67;;;13.85;;
22468;SDS011;11401;50.792;4.352;2024-03-08T03:00:38;16.92;;;12.68;;
22468;SDS011;11401;50.792;4.352;2024-03-08T03:03:07;18.33;;;13.90;;
22468;SDS011;11401;50.792;4.352;2024-03-08T03:05:34;18.52;;;12.60;;
22468;SDS011;11401;50.792;4.352;2024-03-08T03:08:02;17.20;;;12.82;;
22468;SDS011;11401;50.792;4.352;2024-03-08T03:10:36;18.92;;;13.55;;
22468;SDS011;11401;50.792;4.352;2024-03-08T03:13:03;16.42;;;13.30;;
22468;SDS011;11401;50.792;4.352;2024-03-08T03:15:32;17.75;;;13.30;;
22468;SDS011;11401;50.792;4.352;2024-03-08T03:18:00;19.30;;;13.63;;
22468;SDS011;11401;50.792;4.352;2024-03-08T03:20:28;18.25;;;14.07;;
22468;SDS011;11401;50.792;4.352;2024-03-08T03:23:00;18.05;;;12.73;;
22468;SDS011;11401;50.792;4.352;2024-03-08T03:25:30;19.02;;;12.32;;
22468;SDS011;11401;50.792;4.352;2024-03-08T03:28:02;19.65;;;13.15;;
22468;SDS011;11401;50.792;4.352;2024-03-08T03:30:29;18.92;;;13.43;;
22468;SDS011;11401;50.792;4.352;2024-03-08T03:33:00;18.13;;;14.18;;
22468;SDS011;11401;50.792;4.352;2024-03-08T03:35:28;18.55;;;13.95;;
22468;SDS011;11401;50.792;4.352;2024-03-08T03:37:56;17.80;;;13.75;;
22468;SDS011;11401;50.792;4.352;2024-03-08T03:40:34;16.55;;;12.93;;
22468;SDS011;11401;50.792;4.352;2024-03-08T03:43:02;16.98;;;13.18;;
22468;SDS011;11401;50.792;4.352;2024-03-08T03:45:30;21.95;;;14.00;;
22468;SDS011;11401;50.792;4.352;2024-03-08T03:48:03;15.63;;;13.23;;
22468;SDS011;11401;50.792;4.352;2024-03-08T03:50:33;15.80;;;13.55;;
22468;SDS011;11401;50.792;4.352;2024-03-08T03:53:02;16.70;;;13.60;;
22468;SDS011;11401;50.792;4.352;2024-03-08T03:55:30;19.13;;;14.60;;
22468;SDS011;11401;50.792;4.352;2024-03-08T03:57:57;24.55;;;16.55;;
22468;SDS011;11401;50.792;4.352;2024-03-08T04:00:25;17.25;;;13.75;;
22468;SDS011;11401;50.792;4.352;2024-03-08T04:02:54;20.00;;;14.95;;
22468;SDS011;11401;50.792;4.352;2024-03-08T04:05:27;17.15;;;13.93;;
22468;SDS011;11401;50.792;4.352;2024-03-08T04:07:54;17.42;;;13.73;;
22468;SDS011;11401;50.792;4.352;2024-03-08T04:10:21;16.27;;;14.38;;
22468;SDS011;11401;50.792;4.352;2024-03-08T04:12:48;18.27;;;14.15;;
22468;SDS011;11401;50.792;4.352;2024-03-08T04:15:16;18.08;;;14.05;;
22468;SDS011;11401;50.792;4.352;2024-03-08T04:17:43;18.92;;;14.25;;
22468;SDS011;11401;50.792;4.352;2024-03-08T04:20:12;19.98;;;14.75;;
22468;SDS011;11401;50.792;4.352;2024-03-08T04:22:41;21.13;;;15.20;;
22468;SDS011;11401;50.792;4.352;2024-03-08T04:25:09;20.40;;;14.73;;
22468;SDS011;11401;50.792;4.352;2024-03-08T04:27:36;20.77;;;14.40;;
22468;SDS011;11401;50.792;4.352;2024-03-08T04:30:03;17.90;;;13.25;;
22468;SDS011;11401;50.792;4.352;2024-03-08T04:32:34;21.00;;;14.30;;
22468;SDS011;11401;50.792;4.352;2024-03-08T04:35:01;17.75;;;14.23;;
22468;SDS011;11401;50.792;4.352;2024-03-08T04:37:30;20.45;;;16.05;;
22468;SDS011;11401;50.792;4.352;2024-03-08T04:39:58;19.30;;;14.55;;
22468;SDS011;11401;50.792;4.352;2024-03-08T04:42:26;17.23;;;13.40;;
22468;SDS011;11401;50.792;4.352;2024-03-08T04:44:56;18.58;;;14.18;;
22468;SDS011;11401;50.792;4.352;2024-03-08T04:47:24;19.05;;;14.45;;
22468;SDS011;11401;50.792;4.352;2024-03-08T04:49:51;17.88;;;14.13;;
22468;SDS011;11401;50.792;4.352;2024-03-08T04:52:21;19.98;;;15.95;;
22468;SDS011;11401;50.792;4.352;2024-03-08T04:54:48;19.48;;;13.57;;
22468;SDS011;11401;50.792;4.352;2024-03-08T04:57:16;23.60;;;16.20;;
22468;SDS011;11401;50.792;4.352;2024-03-08T04:59:45;19.67;;;14.73;;
22468;SDS011;11401;50.792;4.352;2024-03-08T05:02:12;17.08;;;13.73;;
22468;SDS011;11401;50.792;4.352;2024-03-08T05:04:39;18.25;;;13.95;;
22468;SDS011;11401;50.792;4.352;2024-03-08T05:07:06;20.60;;;15.60;;
22468;SDS011;11401;50.792;4.352;2024-03-08T05:09:34;17.95;;;15.00;;
22468;SDS011;11401;50.792;4.352;2024-03-08T05:12:02;20.65;;;14.75;;
22468;SDS011;11401;50.792;4.352;2024-03-08T05:14:30;21.27;;;14.38;;
22468;SDS011;11401;50.792;4.352;2024-03-08T05:16:57;21.88;;;15.73;;
22468;SDS011;11401;50.792;4.352;2024-03-08T05:19:24;20.23;;;14.68;;
22468;SDS011;11401;50.792;4.352;2024-03-08T05:21:51;17.88;;;15.23;;
22468;SDS011;11401;50.792;4.352;2024-03-08T05:24:18;18.00;;;14.68;;
22468;SDS011;11401;50.792;4.352;2024-03-08T05:26:45;18.70;;;14.68;;
22468;SDS011;11401;50.792;4.352;2024-03-08T05:29:13;19.20;;;14.80;;
22468;SDS011;11401;50.792;4.352;2024-03-08T05:31:48;19.70;;;14.13;;
22468;SDS011;11401;50.792;4.352;2024-03-08T05:34:16;17.92;;;13.95;;
22468;SDS011;11401;50.792;4.352;2024-03-08T05:36:43;18.15;;;13.90;;
22468;SDS011;11401;50.792;4.352;2024-03-08T05:39:14;17.88;;;14.25;;
22468;SDS011;11401;50.792;4.352;2024-03-08T05:41:42;20.02;;;14.48;;
22468;SDS011;11401;50.792;4.352;2024-03-08T05:44:10;18.70;;;14.95;;
22468;SDS011;11401;50.792;4.352;2024-03-08T05:46:37;17.60;;;13.60;;
22468;SDS011;11401;50.792;4.352;2024-03-08T05:49:05;17.73;;;14.18;;
22468;SDS011;11401;50.792;4.352;2024-03-08T05:51:34;18.63;;;14.00;;
22468;SDS011;11401;50.792;4.352;2024-03-08T05:54:02;20.73;;;14.07;;
22468;SDS011;11401;50.792;4.352;2024-03-08T05:56:38;18.27;;;12.70;;
22468;SDS011;11401;50.792;4.352;2024-03-08T05:59:10;19.15;;;14.73;;
22468;SDS011;11401;50.792;4.352;2024-03-08T06:01:37;17.73;;;13.75;;
22468;SDS011;11401;50.792;4.352;2024-03-08T06:04:07;18.42;;;14.50;;
22468;SDS011;11401;50.792;4.352;2024-03-08T06:06:34;19.13;;;14.57;;
22468;SDS011;11401;50.792;4.352;2024-03-08T06:09:04;16.50;;;13.23;;
22468;SDS011;11401;50.792;4.352;2024-03-08T06:11:44;15.60;;;13.32;;
22468;SDS011;11401;50.792;4.352;2024-03-08T06:14:11;18.98;;;13.48;;
22468;SDS011;11401;50.792;4.352;2024-03-08T06:16:38;19.75;;;14.63;;
22468;SDS011;11401;50.792;4.352;2024-03-08T06:19:05;17.35;;;13.82;;
22468;SDS011;11401;50.792;4.352;2024-03-08T06:21:33;18.05;;;13.95;;
22468;SDS011;11401;50.792;4.352;2024-03-08T06:24:00;17.98;;;14.15;;
22468;SDS011;11401;50.792;4.352;2024-03-08T06:26:27;19.23;;;14.18;;
22468;SDS011;11401;50.792;4.352;2024-03-08T06:28:57;21.33;;;14.52;;
22468;SDS011;11401;50.792;4.352;2024-03-08T06:31:24;22.98;;;14.23;;
22468;SDS011;11401;50.792;4.352;2024-03-08T06:33:51;19.75;;;13.77;;
22468;SDS011;11401;50.792;4.352;2024-03-08T06:36:22;18.67;;;13.63;;
22468;SDS011;11401;50.792;4.352;2024-03-08T06:38:49;17.73;;;13.85;;
22468;SDS011;11401;50.792;4.352;2024-03-08T06:41:16;21.25;;;13.80;;
22468;SDS011;11401;50.792;4.352;2024-03-08T06:43:44;19.60;;;13.32;;
22468;SDS011;11401;50.792;4.352;2024-03-08T06:46:12;20.63;;;13.77;;
22468;SDS011;11401;50.792;4.352;2024-03-08T06:48:41;16.20;;;13.23;;
22468;SDS011;11401;50.792;4.352;2024-03-08T06:51:08;19.17;;;14.00;;
22468;SDS011;11401;50.792;4.352;2024-03-08T06:53:37;18.83;;;14.68;;
22468;SDS011;11401;50.792;4.352;2024-03-08T06:56:10;21.35;;;13.90;;
22468;SDS011;11401;50.792;4.352;2024-03-08T06:58:38;20.23;;;13.20;;
22468;SDS011;11401;50.792;4.352;2024-03-08T07:01:05;19.80;;;14.20;;
22468;SDS011;11401;50.792;4.352;2024-03-08T07:03:34;18.00;;;13.80;;
22468;SDS011;11401;50.792;4.352;2024-03-08T07:06:01;21.52;;;13.65;;
22468;SDS011;11401;50.792;4.352;2024-03-08T07:08:30;20.73;;;13.82;;
22468;SDS011;11401;50.792;4.352;2024-03-08T07:10:57;20.55;;;14.05;;
22468;SDS011;11401;50.792;4.352;2024-03-08T07:13:25;20.20;;;13.88;;
22468;SDS011;11401;50.792;4.352;2024-03-08T07:15:56;18.38;;;13.77;;
22468;SDS011;11401;50.792;4.352;2024-03-08T07:18:26;17.88;;;13.73;;
22468;SDS011;11401;50.792;4.352;2024-03-08T07:20:56;19.40;;;13.48;;
22468;SDS011;11401;50.792;4.352;2024-03-08T07:23:24;19.08;;;13.27;;
22468;SDS011;11401;50.792;4.352;2024-03-08T07:26:09;23.40;;;14.63;;
22468;SDS011;11401;50.792;4.352;2024-03-08T07:28:36;19.65;;;14.35;;
22468;SDS011;11401;50.792;4.352;2024-03-08T07:31:05;21.23;;;14.68;;
22468;SDS011;11401;50.792;4.352;2024-03-08T07:33:50;19.33;;;13.95;;
22468;SDS011;11401;50.792;4.352;2024-03-08T07:36:18;21.65;;;13.85;;
22468;SDS011;11401;50.792;4.352;2024-03-08T07:38:45;16.88;;;14.23;;
22468;SDS011;11401;50.792;4.352;2024-03-08T07:41:15;18.67;;;13.55;;
22468;SDS011;11401;50.792;4.352;2024-03-08T07:43:42;16.60;;;13.38;;
22468;SDS011;11401;50.792;4.352;2024-03-08T07:46:10;18.88;;;13.88;;
22468;SDS011;11401;50.792;4.352;2024-03-08T07:48:37;18.00;;;13.27;;
22468;SDS011;11401;50.792;4.352;2024-03-08T07:51:04;19.58;;;14.05;;
22468;SDS011;11401;50.792;4.352;2024-03-08T07:53:32;16.55;;;12.90;;
22468;SDS011;11401;50.792;4.352;2024-03-08T07:55:59;18.55;;;13.60;;
22468;SDS011;11401;50.792;4.352;2024-03-08T07:58:26;18.65;;;13.43;;
22468;SDS011;11401;50.792;4.352;2024-03-08T08:00:55;19.05;;;14.38;;
22468;SDS011;11401;50.792;4.352;2024-03-08T08:03:22;20.55;;;13.82;;
22468;SDS011;11401;50.792;4.352;2024-03-08T08:05:49;15.95;;;12.52;;
22468;SDS011;11401;50.792;4.352;2024-03-08T08:08:16;19.50;;;13.88;;
22468;SDS011;11401;50.792;4.352;2024-03-08T08:10:43;20.58;;;13.48;;
22468;SDS011;11401;50.792;4.352;2024-03-08T08:13:10;18.88;;;13.40;;
22468;SDS011;11401;50.792;4.352;2024-03-08T08:15:37;17.05;;;12.75;;
22468;SDS011;11401;50.792;4.352;2024-03-08T08:18:04;18.60;;;14.25;;
22468;SDS011;11401;50.792;4.352;2024-03-08T08:20:33;16.13;;;12.93;;
22468;SDS011;11401;50.792;4.352;2024-03-08T08:23:00;17.80;;;13.10;;
22468;SDS011;11401;50.792;4.352;2024-03-08T08:25:27;19.13;;;13.63;;
22468;SDS011;11401;50.792;4.352;2024-03-08T08:27:55;16.65;;;13.00;;
22468;SDS011;11401;50.792;4.352;2024-03-08T08:30:22;17.92;;;12.63;;
22468;SDS011;11401;50.792;4.352;2024-03-08T08:32:49;17.02;;;13.38;;
22468;SDS011;11401;50.792;4.352;2024-03-08T08:35:16;16.80;;;13.23;;
22468;SDS011;11401;50.792;4.352;2024-03-08T08:37:46;15.77;;;12.27;;
22468;SDS011;11401;50.792;4.352;2024-03-08T08:40:13;14.73;;;12.13;;
22468;SDS011;11401;50.792;4.352;2024-03-08T08:42:44;15.57;;;12.82;;
22468;SDS011;11401;50.792;4.352;2024-03-08T08:45:15;21.13;;;13.77;;
22468;SDS011;11401;50.792;4.352;2024-03-08T08:47:51;18.02;;;13.35;;
22468;SDS011;11401;50.792;4.352;2024-03-08T08:50:18;18.23;;;13.23;;
22468;SDS011;11401;50.792;4.352;2024-03-08T08:52:52;16.30;;;12.30;;
22468;SDS011;11401;50.792;4.352;2024-03-08T08:55:20;19.45;;;13.23;;
22468;SDS011;11401;50.792;4.352;2024-03-08T08:57:49;14.55;;;11.25;;
22468;SDS011;11401;50.792;4.352;2024-03-08T09:00:21;14.52;;;12.00;;
22468;SDS011;11401;50.792;4.352;2024-03-08T09:02:53;15.25;;;11.43;;
22468;SDS011;11401;50.792;4.352;2024-03-08T09:05:22;16.52;;;12.52;;
22468;SDS011;11401;50.792;4.352;2024-03-08T09:07:50;15.63;;;12.15;;
22468;SDS011;11401;50.792;4.352;2024-03-08T09:10:17;16.42;;;11.43;;
22468;SDS011;11401;50.792;4.352;2024-03-08T09:12:45;17.10;;;12.63;;
22468;SDS011;11401;50.792;4.352;2024-03-08T09:15:12;13.63;;;11.07;;
22468;SDS011;11401;50.792;4.352;2024-03-08T09:17:40;18.75;;;12.10;;
22468;SDS011;11401;50.792;4.352;2024-03-08T09:20:08;14.38;;;11.23;;
22468;SDS011;11401;50.792;4.352;2024-03-08T09:22:37;15.82;;;11.75;;
22468;SDS011;11401;50.792;4.352;2024-03-08T09:25:04;13.85;;;11.35;;
22468;SDS011;11401;50.792;4.352;2024-03-08T09:27:32;15.02;;;11.52;;
22468;SDS011;11401;50.792;4.352;2024-03-08T09:30:04;15.93;;;12.18;;
22468;SDS011;11401;50.792;4.352;2024-03-08T09:32:33;15.15;;;11.88;;
22468;SDS011;11401;50.792;4.352;2024-03-08T09:35:01;14.50;;;12.15;;
22468;SDS011;11401;50.792;4.352;2024-03-08T09:37:28;16.27;;;11.73;;
22468;SDS011;11401;50.792;4.352;2024-03-08T09:39:56;14.20;;;10.90;;
22468;SDS011;11401;50.792;4.352;2024-03-08T09:42:23;16.88;;;12.15;;
22468;SDS011;11401;50.792;4.352;2024-03-08T09:44:51;17.05;;;11.02;;
22468;SDS011;11401;50.792;4.352;2024-03-08T09:47:18;30.95;;;12.85;;
22468;SDS011;11401;50.792;4.352;2024-03-08T09:49:50;18.83;;;12.68;;
22468;SDS011;11401;50.792;4.352;2024-03-08T09:52:20;22.48;;;13.20;;
22468;SDS011;11401;50.792;4.352;2024-03-08T09:54:47;14.77;;;11.80;;
22468;SDS011;11401;50.792;4.352;2024-03-08T09:57:16;16.85;;;11.15;;
22468;SDS011;11401;50.792;4.352;2024-03-08T09:59:46;16.20;;;11.55;;
22468;SDS011;11401;50.792;4.352;2024-03-08T10:02:14;16.33;;;11.57;;
22468;SDS011;11401;50.792;4.352;2024-03-08T10:04:43;18.20;;;11.57;;
22468;SDS011;11401;50.792;4.352;2024-03-08T10:07:14;14.93;;;10.13;;
22468;SDS011;11401;50.792;4.352;2024-03-08T10:09:42;18.88;;;11.25;;
22468;SDS011;11401;50.792;4.352;2024-03-08T10:12:16;16.55;;;11.38;;
22468;SDS011;11401;50.792;4.352;2024-03-08T10:14:43;15.63;;;10.68;;
22468;SDS011;11401;50.792;4.352;2024-03-08T10:17:12;17.88;;;11.85;;
22468;SDS011;11401;50.792;4.352;2024-03-08T10:19:47;17.50;;;11.63;;
22468;SDS011;11401;50.792;4.352;2024-03-08T10:22:17;15.65;;;11.65;;
22468;SDS011;11401;50.792;4.352;2024-03-08T10:24:46;18.30;;;11.25;;
22468;SDS011;11401;50.792;4.352;2024-03-08T10:27:14;14.68;;;11.60;;
22468;SDS011;11401;50.792;4.352;2024-03-08T10:29:45;12.32;;;10.55;;
22468;SDS011;11401;50.792;4.352;2024-03-08T10:32:18;16.08;;;11.23;;
22468;SDS011;11401;50.792;4.352;2024-03-08T10:34:45;16.40;;;11.23;;
22468;SDS011;11401;50.792;4.352;2024-03-08T10:37:14;16.63;;;11.10;;
22468;SDS011;11401;50.792;4.352;2024-03-08T10:39:53;13.82;;;10.50;;
22468;SDS011;11401;50.792;4.352;2024-03-08T10:42:43;14.45;;;10.85;;
22468;SDS011;11401;50.792;4.352;2024-03-08T10:45:38;13.00;;;10.43;;
22468;SDS011;11401;50.792;4.352;2024-03-08T10:51:04;15.05;;;10.73;;
22468;SDS011;11401;50.792;4.352;2024-03-08T10:53:34;14.70;;;10.13;;
22468;SDS011;11401;50.792;4.352;2024-03-08T10:56:03;13.80;;;10.88;;
22468;SDS011;11401;50.792;4.352;2024-03-08T10:58:31;14.38;;;9.82;;
22468;SDS011;11401;50.792;4.352;2024-03-08T11:01:01;13.82;;;10.55;;
22468;SDS011;11401;50.792;4.352;2024-03-08T11:06:18;12.88;;;10.32;;
22468;SDS011;11401;50.792;4.352;2024-03-08T11:09:08;15.55;;;11.05;;
22468;SDS011;11401;50.792;4.352;2024-03-08T11:14:48;12.38;;;10.55;;
22468;SDS011;11401;50.792;4.352;2024-03-08T11:17:20;15.88;;;11.23;;
22468;SDS011;11401;50.792;4.352;2024-03-08T11:22:47;12.88;;;10.05;;
22468;SDS011;11401;50.792;4.352;2024-03-08T11:25:31;11.30;;;9.68;;
22468;SDS011;11401;50.792;4.352;2024-03-08T11:30:47;13.55;;;10.02;;
22468;SDS011;11401;50.792;4.352;2024-03-08T11:33:31;14.68;;;10.40;;
22468;SDS011;11401;50.792;4.352;2024-03-08T11:38:41;16.00;;;11.10;;
22468;SDS011;11401;50.792;4.352;2024-03-08T11:41:19;12.15;;;9.98;;
22468;SDS011;11401;50.792;4.352;2024-03-08T11:43:47;13.32;;;9.65;;
22468;SDS011;11401;50.792;4.352;2024-03-08T11:46:16;12.68;;;10.55;;
22468;SDS011;11401;50.792;4.352;2024-03-08T11:48:46;11.93;;;9.88;;
22468;SDS011;11401;50.792;4.352;2024-03-08T11:51:15;15.10;;;9.90;;
22468;SDS011;11401;50.792;4.352;2024-03-08T11:53:45;12.43;;;10.02;;
22468;SDS011;11401;50.792;4.352;2024-03-08T11:56:14;14.48;;;10.93;;
22468;SDS011;11401;50.792;4.352;2024-03-08T11:58:47;13.00;;;9.32;;
22468;SDS011;11401;50.792;4.352;2024-03-08T12:01:26;11.98;;;10.45;;
22468;SDS011;11401;50.792;4.352;2024-03-08T12:03:54;11.80;;;10.05;;
22468;SDS011;11401;50.792;4.352;2024-03-08T12:06:25;13.70;;;10.50;;
22468;SDS011;11401;50.792;4.352;2024-03-08T12:08:53;11.48;;;9.60;;
22468;SDS011;11401;50.792;4.352;2024-03-08T12:11:20;11.80;;;9.60;;
22468;SDS011;11401;50.792;4.352;2024-03-08T12:13:50;12.80;;;9.10;;
22468;SDS011;11401;50.792;4.352;2024-03-08T12:16:18;11.13;;;9.57;;
22468;SDS011;11401;50.792;4.352;2024-03-08T12:18:48;15.27;;;10.13;;
22468;SDS011;11401;50.792;4.352;2024-03-08T12:21:17;12.57;;;9.32;;
22468;SDS011;11401;50.792;4.352;2024-03-08T12:23:47;13.80;;;10.23;;
22468;SDS011;11401;50.792;4.352;2024-03-08T12:26:25;14.05;;;9.57;;
22468;SDS011;11401;50.792;4.352;2024-03-08T12:28:52;14.90;;;10.20;;
22468;SDS011;11401;50.792;4.352;2024-03-08T12:31:20;14.07;;;9.50;;
22468;SDS011;11401;50.792;4.352;2024-03-08T12:33:49;12.57;;;9.40;;
22468;SDS011;11401;50.792;4.352;2024-03-08T12:36:20;13.32;;;10.50;;
22468;SDS011;11401;50.792;4.352;2024-03-08T12:38:48;12.52;;;9.52;;
22468;SDS011;11401;50.792;4.352;2024-03-08T12:41:15;13.02;;;9.68;;
22468;SDS011;11401;50.792;4.352;2024-03-08T12:43:47;14.10;;;10.20;;
22468;SDS011;11401;50.792;4.352;2024-03-08T12:46:18;12.05;;;9.95;;
22468;SDS011;11401;50.792;4.352;2024-03-08T12:48:48;11.40;;;8.80;;
22468;SDS011;11401;50.792;4.352;2024-03-08T12:51:16;11.90;;;9.25;;
22468;SDS011;11401;50.792;4.352;2024-03-08T12:53:45;12.55;;;10.27;;
22468;SDS011;11401;50.792;4.352;2024-03-08T12:56:13;13.07;;;9.52;;
22468;SDS011;11401;50.792;4.352;2024-03-08T12:58:54;11.02;;;9.32;;
22468;SDS011;11401;50.792;4.352;2024-03-08T13:01:22;12.60;;;9.77;;
22468;SDS011;11401;50.792;4.352;2024-03-08T13:03:50;11.05;;;9.10;;
22468;SDS011;11401;50.792;4.352;2024-03-08T13:06:16;11.13;;;8.77;;
22468;SDS011;11401;50.792;4.352;2024-03-08T13:08:44;11.50;;;9.15;;
22468;SDS011;11401;50.792;4.352;2024-03-08T13:11:12;11.48;;;9.27;;
22468;SDS011;11401;50.792;4.352;2024-03-08T13:13:40;11.02;;;8.50;;
22468;SDS011;11401;50.792;4.352;2024-03-08T13:16:08;9.68;;;7.93;;
22468;SDS011;11401;50.792;4.352;2024-03-08T13:18:35;13.02;;;9.20;;
22468;SDS011;11401;50.792;4.352;2024-03-08T13:21:03;10.90;;;9.27;;
22468;SDS011;11401;50.792;4.352;2024-03-08T13:23:35;12.55;;;9.07;;
22468;SDS011;11401;50.792;4.352;2024-03-08T13:26:12;10.57;;;8.88;;
22468;SDS011;11401;50.792;4.352;2024-03-08T13:28:48;10.40;;;8.35;;
22468;SDS011;11401;50.792;4.352;2024-03-08T13:31:20;10.00;;;8.57;;
22468;SDS011;11401;50.792;4.352;2024-03-08T13:33:47;10.27;;;8.60;;
22468;SDS011;11401;50.792;4.352;2024-03-08T13:36:15;12.75;;;8.50;;
22468;SDS011;11401;50.792;4.352;2024-03-08T13:41:10;10.02;;;7.75;;
22468;SDS011;11401;50.792;4.352;2024-03-08T13:43:38;9.48;;;7.55;;
22468;SDS011;11401;50.792;4.352;2024-03-08T13:46:07;10.82;;;9.10;;
22468;SDS011;11401;50.792;4.352;2024-03-08T13:48:34;13.10;;;9.95;;
22468;SDS011;11401;50.792;4.352;2024-03-08T13:51:01;9.52;;;7.90;;
22468;SDS011;11401;50.792;4.352;2024-03-08T13:53:28;12.60;;;9.70;;
22468;SDS011;11401;50.792;4.352;2024-03-08T13:56:01;10.75;;;8.52;;
22468;SDS011;11401;50.792;4.352;2024-03-08T13:58:30;9.27;;;8.07;;
22468;SDS011;11401;50.792;4.352;2024-03-08T14:01:01;7.63;;;6.60;;
22468;SDS011;11401;50.792;4.352;2024-03-08T14:03:30;10.85;;;8.90;;
22468;SDS011;11401;50.792;4.352;2024-03-08T14:05:59;10.10;;;8.00;;
22468;SDS011;11401;50.792;4.352;2024-03-08T14:08:26;8.70;;;7.80;;
22468;SDS011;11401;50.792;4.352;2024-03-08T14:10:54;9.85;;;8.40;;
22468;SDS011;11401;50.792;4.352;2024-03-08T14:13:21;10.38;;;7.75;;
22468;SDS011;11401;50.792;4.352;2024-03-08T14:15:48;9.23;;;7.90;;
22468;SDS011;11401;50.792;4.352;2024-03-08T14:18:15;10.05;;;8.05;;
22468;SDS011;11401;50.792;4.352;2024-03-08T14:20:49;14.60;;;7.60;;
22468;SDS011;11401;50.792;4.352;2024-03-08T14:23:19;11.73;;;8.43;;
22468;SDS011;11401;50.792;4.352;2024-03-08T14:25:49;10.10;;;7.35;;
22468;SDS011;11401;50.792;4.352;2024-03-08T14:28:18;10.70;;;8.07;;
22468;SDS011;11401;50.792;4.352;2024-03-08T14:30:45;12.57;;;8.02;;
22468;SDS011;11401;50.792;4.352;2024-03-08T14:33:12;9.27;;;7.90;;
22468;SDS011;11401;50.792;4.352;2024-03-08T14:35:40;10.32;;;7.45;;
22468;SDS011;11401;50.792;4.352;2024-03-08T14:38:14;9.07;;;6.97;;
22468;SDS011;11401;50.792;4.352;2024-03-08T14:40:43;11.15;;;7.65;;
22468;SDS011;11401;50.792;4.352;2024-03-08T14:43:13;10.15;;;7.78;;
22468;SDS011;11401;50.792;4.352;2024-03-08T14:45:41;10.60;;;7.50;;
22468;SDS011;11401;50.792;4.352;2024-03-08T14:48:08;7.93;;;6.40;;
22468;SDS011;11401;50.792;4.352;2024-03-08T14:50:38;9.30;;;6.50;;
22468;SDS011;11401;50.792;4.352;2024-03-08T14:53:07;9.00;;;6.70;;
22468;SDS011;11401;50.792;4.352;2024-03-08T14:55:34;7.78;;;6.97;;